sensor_id;sensor_type;location;lat;lon;timestamp;pressure;altitude;pressure_sealevel;temperature;humidity
64336;BME280;50672;53.362;-6.240;2022-12-29T00:02:15;98758.06;;;6.15;86.17
64336;BME280;50672;53.362;-6.240;2022-12-29T00:04:42;98747.66;;;6.12;86.38
64336;BME280;50672;53.362;-6.240;2022-12-29T00:07:09;98749.53;;;6.11;86.22
64336;BME280;50672;53.362;-6.240;2022-12-29T00:09:36;98761.34;;;6.10;86.47
64336;BME280;50672;53.362;-6.240;2022-12-29T00:12:04;98750.75;;;6.09;86.30
64336;BME280;50672;53.362;-6.240;2022-12-29T00:14:31;98776.28;;;6.06;86.57
64336;BME280;50672;53.362;-6.240;2022-12-29T00:17:16;98775.44;;;6.06;86.54
64336;BME280;50672;53.362;-6.240;2022-12-29T00:19:43;98777.31;;;6.05;86.43
64336;BME280;50672;53.362;-6.240;2022-12-29T00:22:43;98780.00;;;6.05;86.50
64336;BME280;50672;53.362;-6.240;2022-12-29T00:25:31;98789.97;;;6.05;86.75
64336;BME280;50672;53.362;-6.240;2022-12-29T00:28:16;98792.88;;;6.03;86.67
64336;BME280;50672;53.362;-6.240;2022-12-29T00:31:01;98804.06;;;6.00;86.73
64336;BME280;50672;53.362;-6.240;2022-12-29T00:33:47;98807.41;;;6.02;86.76
64336;BME280;50672;53.362;-6.240;2022-12-29T00:36:35;98806.38;;;6.03;86.68
64336;BME280;50672;53.362;-6.240;2022-12-29T00:39:07;98812.81;;;6.02;86.89
64336;BME280;50672;53.362;-6.240;2022-12-29T00:41:55;98810.94;;;6.03;86.88
64336;BME280;50672;53.362;-6.240;2022-12-29T00:44:40;98817.81;;;6.05;86.84
64336;BME280;50672;53.362;-6.240;2022-12-29T00:47:07;98819.88;;;6.03;86.89
64336;BME280;50672;53.362;-6.240;2022-12-29T00:49:33;98826.31;;;6.02;87.11
64336;BME280;50672;53.362;-6.240;2022-12-29T00:52:07;98820.91;;;6.02;86.98
64336;BME280;50672;53.362;-6.240;2022-12-29T00:54:36;98820.28;;;6.00;87.33
64336;BME280;50672;53.362;-6.240;2022-12-29T00:57:04;98829.00;;;6.02;87.21
64336;BME280;50672;53.362;-6.240;2022-12-29T00:59:34;98833.59;;;6.02;87.50
64336;BME280;50672;53.362;-6.240;2022-12-29T01:02:01;98826.97;;;6.04;87.34
64336;BME280;50672;53.362;-6.240;2022-12-29T01:04:28;98821.56;;;6.04;87.58
64336;BME280;50672;53.362;-6.240;2022-12-29T01:06:55;98832.38;;;6.04;87.30
64336;BME280;50672;53.362;-6.240;2022-12-29T01:09:22;98839.41;;;6.05;87.40
64336;BME280;50672;53.362;-6.240;2022-12-29T01:12:08;98847.53;;;6.05;87.29
64336;BME280;50672;53.362;-6.240;2022-12-29T01:14:36;98844.81;;;6.05;87.32
64336;BME280;50672;53.362;-6.240;2022-12-29T01:17:03;98846.03;;;6.03;87.51
64336;BME280;50672;53.362;-6.240;2022-12-29T01:19:30;98846.22;;;6.01;87.33
64336;BME280;50672;53.362;-6.240;2022-12-29T01:21:57;98856.41;;;5.99;87.27
64336;BME280;50672;53.362;-6.240;2022-12-29T01:24:24;98858.91;;;6.01;87.36
64336;BME280;50672;53.362;-6.240;2022-12-29T01:26:52;98856.22;;;6.01;87.29
64336;BME280;50672;53.362;-6.240;2022-12-29T01:29:21;98852.69;;;6.00;87.14
64336;BME280;50672;53.362;-6.240;2022-12-29T01:31:48;98851.84;;;5.99;87.10
64336;BME280;50672;53.362;-6.240;2022-12-29T01:34:17;98859.31;;;5.97;87.13
64336;BME280;50672;53.362;-6.240;2022-12-29T01:36:44;98861.13;;;5.97;87.15
64336;BME280;50672;53.362;-6.240;2022-12-29T01:39:11;98860.28;;;5.96;87.11
64336;BME280;50672;53.362;-6.240;2022-12-29T01:41:39;98854.22;;;5.94;86.96
64336;BME280;50672;53.362;-6.240;2022-12-29T01:47:41;98865.22;;;5.93;86.95
64336;BME280;50672;53.362;-6.240;2022-12-29T01:50:18;98876.03;;;5.93;86.89
64336;BME280;50672;53.362;-6.240;2022-12-29T01:53:24;98875.00;;;5.94;86.90
64336;BME280;50672;53.362;-6.240;2022-12-29T01:56:00;98883.31;;;5.92;86.82
64336;BME280;50672;53.362;-6.240;2022-12-29T01:58:32;98884.13;;;5.93;86.98
64336;BME280;50672;53.362;-6.240;2022-12-29T02:01:01;98892.63;;;5.90;86.92
64336;BME280;50672;53.362;-6.240;2022-12-29T02:03:28;98882.84;;;5.89;86.91
64336;BME280;50672;53.362;-6.240;2022-12-29T02:06:10;98904.44;;;5.89;86.84
64336;BME280;50672;53.362;-6.240;2022-12-29T02:08:40;98901.59;;;5.90;86.80
64336;BME280;50672;53.362;-6.240;2022-12-29T02:11:07;98908.81;;;5.90;86.75
64336;BME280;50672;53.362;-6.240;2022-12-29T02:13:34;98903.63;;;5.88;86.79
64336;BME280;50672;53.362;-6.240;2022-12-29T02:19:28;98907.34;;;5.87;86.76
64336;BME280;50672;53.362;-6.240;2022-12-29T02:22:48;98909.22;;;5.87;86.64
64336;BME280;50672;53.362;-6.240;2022-12-29T02:25:14;98910.91;;;5.88;86.73
64336;BME280;50672;53.362;-6.240;2022-12-29T02:30:42;98917.94;;;5.89;86.76
64336;BME280;50672;53.362;-6.240;2022-12-29T02:36:54;98917.31;;;5.87;86.72
64336;BME280;50672;53.362;-6.240;2022-12-29T02:45:05;98940.22;;;5.91;86.43
64336;BME280;50672;53.362;-6.240;2022-12-29T02:47:53;98951.00;;;5.91;86.41
64336;BME280;50672;53.362;-6.240;2022-12-29T02:50:26;98948.31;;;5.91;86.59
64336;BME280;50672;53.362;-6.240;2022-12-29T02:53:02;98952.88;;;5.90;86.53
64336;BME280;50672;53.362;-6.240;2022-12-29T02:55:31;98959.13;;;5.91;86.25
64336;BME280;50672;53.362;-6.240;2022-12-29T02:58:19;98971.94;;;5.89;86.20
64336;BME280;50672;53.362;-6.240;2022-12-29T03:01:01;98974.66;;;5.89;86.12
64336;BME280;50672;53.362;-6.240;2022-12-29T03:09:43;98975.75;;;5.94;86.19
64336;BME280;50672;53.362;-6.240;2022-12-29T03:12:30;98978.66;;;5.93;85.85
64336;BME280;50672;53.362;-6.240;2022-12-29T03:15:22;98988.94;;;5.97;85.96
64336;BME280;50672;53.362;-6.240;2022-12-29T03:18:22;98989.56;;;5.99;85.58
64336;BME280;50672;53.362;-6.240;2022-12-29T03:21:02;98997.47;;;6.01;85.94
64336;BME280;50672;53.362;-6.240;2022-12-29T03:23:30;99010.25;;;6.07;85.81
64336;BME280;50672;53.362;-6.240;2022-12-29T03:26:01;99009.66;;;6.12;85.69
64336;BME280;50672;53.362;-6.240;2022-12-29T03:28:35;99010.75;;;6.18;85.59
64336;BME280;50672;53.362;-6.240;2022-12-29T03:31:06;99009.09;;;6.16;85.42
64336;BME280;50672;53.362;-6.240;2022-12-29T03:33:36;99013.84;;;6.14;85.27
64336;BME280;50672;53.362;-6.240;2022-12-29T03:36:07;99034.81;;;6.12;85.20
64336;BME280;50672;53.362;-6.240;2022-12-29T03:38:50;99041.06;;;6.13;84.82
64336;BME280;50672;53.362;-6.240;2022-12-29T03:41:24;99042.47;;;6.09;85.25
64336;BME280;50672;53.362;-6.240;2022-12-29T03:43:52;99048.06;;;6.07;84.96
64336;BME280;50672;53.362;-6.240;2022-12-29T03:46:19;99058.66;;;6.09;84.97
64336;BME280;50672;53.362;-6.240;2022-12-29T03:48:45;99077.38;;;6.10;84.89
64336;BME280;50672;53.362;-6.240;2022-12-29T03:51:12;99070.59;;;6.14;84.60
64336;BME280;50672;53.362;-6.240;2022-12-29T03:53:39;99063.13;;;6.16;84.68
64336;BME280;50672;53.362;-6.240;2022-12-29T03:56:06;99081.66;;;6.20;84.66
64336;BME280;50672;53.362;-6.240;2022-12-29T03:58:34;99084.72;;;6.16;84.61
64336;BME280;50672;53.362;-6.240;2022-12-29T04:01:00;99088.47;;;6.15;84.63
64336;BME280;50672;53.362;-6.240;2022-12-29T04:03:27;99088.81;;;6.12;84.38
64336;BME280;50672;53.362;-6.240;2022-12-29T04:05:54;99085.00;;;6.07;84.41
64336;BME280;50672;53.362;-6.240;2022-12-29T04:08:21;99084.75;;;6.02;84.35
64336;BME280;50672;53.362;-6.240;2022-12-29T04:10:48;99102.81;;;6.01;84.50
64336;BME280;50672;53.362;-6.240;2022-12-29T04:13:16;99103.00;;;5.99;84.45
64336;BME280;50672;53.362;-6.240;2022-12-29T04:15:43;99102.16;;;5.99;84.41
64336;BME280;50672;53.362;-6.240;2022-12-29T04:18:12;99095.25;;;5.96;84.59
64336;BME280;50672;53.362;-6.240;2022-12-29T04:20:39;99105.88;;;5.98;84.62
64336;BME280;50672;53.362;-6.240;2022-12-29T04:23:25;99105.69;;;5.99;84.48
64336;BME280;50672;53.362;-6.240;2022-12-29T04:25:52;99102.16;;;5.99;84.59
64336;BME280;50672;53.362;-6.240;2022-12-29T04:28:19;99110.47;;;5.97;84.56
64336;BME280;50672;53.362;-6.240;2022-12-29T04:30:46;99110.63;;;5.96;84.33
64336;BME280;50672;53.362;-6.240;2022-12-29T04:33:13;99120.56;;;5.95;84.60
64336;BME280;50672;53.362;-6.240;2022-12-29T04:35:41;99118.72;;;5.96;84.38
64336;BME280;50672;53.362;-6.240;2022-12-29T04:38:09;99130.19;;;5.98;84.53
64336;BME280;50672;53.362;-6.240;2022-12-29T04:40:38;99128.47;;;5.97;84.20
64336;BME280;50672;53.362;-6.240;2022-12-29T04:43:06;99131.19;;;5.97;84.29
64336;BME280;50672;53.362;-6.240;2022-12-29T04:45:32;99147.06;;;6.00;84.08
64336;BME280;50672;53.362;-6.240;2022-12-29T04:47:59;99143.50;;;5.99;84.15
64336;BME280;50672;53.362;-6.240;2022-12-29T04:50:26;99138.78;;;6.02;83.91
64336;BME280;50672;53.362;-6.240;2022-12-29T04:52:53;99148.91;;;5.99;83.92
64336;BME280;50672;53.362;-6.240;2022-12-29T04:55:20;99148.44;;;5.96;83.99
64336;BME280;50672;53.362;-6.240;2022-12-29T04:57:47;99168.00;;;5.98;83.84
64336;BME280;50672;53.362;-6.240;2022-12-29T05:00:14;99164.47;;;5.97;83.90
64336;BME280;50672;53.362;-6.240;2022-12-29T05:02:41;99157.53;;;5.95;83.87
64336;BME280;50672;53.362;-6.240;2022-12-29T05:05:08;99161.94;;;5.96;83.84
64336;BME280;50672;53.362;-6.240;2022-12-29T05:07:35;99156.69;;;5.94;83.68
64336;BME280;50672;53.362;-6.240;2022-12-29T05:10:02;99166.66;;;5.94;83.73
64336;BME280;50672;53.362;-6.240;2022-12-29T05:12:31;99179.16;;;5.95;83.51
64336;BME280;50672;53.362;-6.240;2022-12-29T05:14:57;99188.59;;;5.99;83.38
64336;BME280;50672;53.362;-6.240;2022-12-29T05:17:25;99191.31;;;5.99;83.26
64336;BME280;50672;53.362;-6.240;2022-12-29T05:19:51;99205.00;;;5.97;83.21
64336;BME280;50672;53.362;-6.240;2022-12-29T05:22:18;99205.31;;;5.94;82.93
64336;BME280;50672;53.362;-6.240;2022-12-29T05:24:45;99199.25;;;5.92;82.84
64336;BME280;50672;53.362;-6.240;2022-12-29T05:27:12;99196.06;;;5.89;82.73
64336;BME280;50672;53.362;-6.240;2022-12-29T05:29:40;99196.63;;;5.84;82.40
64336;BME280;50672;53.362;-6.240;2022-12-29T05:32:06;99199.03;;;5.79;82.33
64336;BME280;50672;53.362;-6.240;2022-12-29T05:34:33;99204.63;;;5.77;82.43
64336;BME280;50672;53.362;-6.240;2022-12-29T05:36:59;99202.97;;;5.76;82.29
64336;BME280;50672;53.362;-6.240;2022-12-29T05:39:28;99197.09;;;5.73;81.99
64336;BME280;50672;53.362;-6.240;2022-12-29T05:41:55;99207.88;;;5.73;82.11
64336;BME280;50672;53.362;-6.240;2022-12-29T05:44:22;99210.09;;;5.69;81.88
64336;BME280;50672;53.362;-6.240;2022-12-29T05:46:48;99212.34;;;5.65;81.92
64336;BME280;50672;53.362;-6.240;2022-12-29T05:49:16;99204.41;;;5.64;81.71
64336;BME280;50672;53.362;-6.240;2022-12-29T05:51:43;99217.25;;;5.62;81.59
64336;BME280;50672;53.362;-6.240;2022-12-29T05:54:10;99217.25;;;5.62;81.57
64336;BME280;50672;53.362;-6.240;2022-12-29T05:56:37;99212.03;;;5.60;81.17
64336;BME280;50672;53.362;-6.240;2022-12-29T05:59:03;99212.22;;;5.59;81.11
64336;BME280;50672;53.362;-6.240;2022-12-29T06:01:30;99203.09;;;5.60;81.13
64336;BME280;50672;53.362;-6.240;2022-12-29T06:03:57;99210.16;;;5.61;80.79
64336;BME280;50672;53.362;-6.240;2022-12-29T06:06:24;99212.69;;;5.62;80.95
64336;BME280;50672;53.362;-6.240;2022-12-29T06:08:51;99208.13;;;5.63;80.79
64336;BME280;50672;53.362;-6.240;2022-12-29T06:11:17;99213.16;;;5.66;80.55
64336;BME280;50672;53.362;-6.240;2022-12-29T06:13:44;99214.03;;;5.67;80.44
64336;BME280;50672;53.362;-6.240;2022-12-29T06:16:11;99208.63;;;5.67;80.36
64336;BME280;50672;53.362;-6.240;2022-12-29T06:18:38;99226.66;;;5.66;80.18
64336;BME280;50672;53.362;-6.240;2022-12-29T06:21:05;99231.53;;;5.71;80.23
64336;BME280;50672;53.362;-6.240;2022-12-29T06:23:32;99215.97;;;5.73;80.03
64336;BME280;50672;53.362;-6.240;2022-12-29T06:25:59;99218.88;;;5.71;79.98
64336;BME280;50672;53.362;-6.240;2022-12-29T06:28:25;99222.94;;;5.67;79.82
64336;BME280;50672;53.362;-6.240;2022-12-29T06:30:52;99226.00;;;5.64;79.88
64336;BME280;50672;53.362;-6.240;2022-12-29T06:33:19;99219.31;;;5.60;79.79
64336;BME280;50672;53.362;-6.240;2022-12-29T06:35:47;99227.22;;;5.61;79.89
64336;BME280;50672;53.362;-6.240;2022-12-29T06:38:14;99227.22;;;5.61;79.60
64336;BME280;50672;53.362;-6.240;2022-12-29T06:40:43;99210.16;;;5.61;79.65
64336;BME280;50672;53.362;-6.240;2022-12-29T06:43:11;99220.50;;;5.57;79.52
64336;BME280;50672;53.362;-6.240;2022-12-29T06:45:39;99227.09;;;5.55;79.34
64336;BME280;50672;53.362;-6.240;2022-12-29T06:48:06;99210.72;;;5.56;79.42
64336;BME280;50672;53.362;-6.240;2022-12-29T06:50:33;99222.63;;;5.62;79.44
64336;BME280;50672;53.362;-6.240;2022-12-29T06:53:00;99211.47;;;5.65;79.54
64336;BME280;50672;53.362;-6.240;2022-12-29T06:55:27;99224.63;;;5.68;79.20
64336;BME280;50672;53.362;-6.240;2022-12-29T06:57:55;99226.84;;;5.64;79.28
64336;BME280;50672;53.362;-6.240;2022-12-29T07:00:23;99237.00;;;5.62;79.17
64336;BME280;50672;53.362;-6.240;2022-12-29T07:02:50;99234.44;;;5.61;79.24
64336;BME280;50672;53.362;-6.240;2022-12-29T07:05:17;99240.03;;;5.59;79.31
64336;BME280;50672;53.362;-6.240;2022-12-29T07:07:44;99241.25;;;5.57;79.30
64336;BME280;50672;53.362;-6.240;2022-12-29T07:10:11;99234.19;;;5.56;79.13
64336;BME280;50672;53.362;-6.240;2022-12-29T07:12:38;99246.66;;;5.57;78.89
64336;BME280;50672;53.362;-6.240;2022-12-29T07:15:05;99258.28;;;5.57;78.91
64336;BME280;50672;53.362;-6.240;2022-12-29T07:17:31;99260.78;;;5.59;78.72
64336;BME280;50672;53.362;-6.240;2022-12-29T07:19:58;99259.09;;;5.58;78.87
64336;BME280;50672;53.362;-6.240;2022-12-29T07:22:27;99260.16;;;5.57;78.63
64336;BME280;50672;53.362;-6.240;2022-12-29T07:24:54;99266.38;;;5.57;78.55
64336;BME280;50672;53.362;-6.240;2022-12-29T07:27:20;99264.69;;;5.56;78.55
64336;BME280;50672;53.362;-6.240;2022-12-29T07:29:47;99260.50;;;5.54;78.44
64336;BME280;50672;53.362;-6.240;2022-12-29T07:32:14;99282.25;;;5.52;78.35
64336;BME280;50672;53.362;-6.240;2022-12-29T07:34:41;99268.50;;;5.47;78.35
64336;BME280;50672;53.362;-6.240;2022-12-29T07:37:07;99272.56;;;5.43;78.35
64336;BME280;50672;53.362;-6.240;2022-12-29T07:39:34;99267.50;;;5.40;78.13
64336;BME280;50672;53.362;-6.240;2022-12-29T07:42:01;99270.38;;;5.38;78.45
64336;BME280;50672;53.362;-6.240;2022-12-29T07:44:30;99273.63;;;5.34;78.39
64336;BME280;50672;53.362;-6.240;2022-12-29T07:46:57;99270.91;;;5.34;78.42
64336;BME280;50672;53.362;-6.240;2022-12-29T07:49:25;99276.97;;;5.36;78.58
64336;BME280;50672;53.362;-6.240;2022-12-29T07:51:52;99285.19;;;5.42;78.66
64336;BME280;50672;53.362;-6.240;2022-12-29T07:54:19;99287.13;;;5.57;78.44
64336;BME280;50672;53.362;-6.240;2022-12-29T07:56:46;99294.00;;;5.59;78.65
64336;BME280;50672;53.362;-6.240;2022-12-29T07:59:13;99298.59;;;5.59;78.58
64336;BME280;50672;53.362;-6.240;2022-12-29T08:01:40;99300.28;;;5.60;78.84
64336;BME280;50672;53.362;-6.240;2022-12-29T08:04:07;99300.63;;;5.57;78.65
64336;BME280;50672;53.362;-6.240;2022-12-29T08:06:34;99303.03;;;5.52;78.86
64336;BME280;50672;53.362;-6.240;2022-12-29T08:09:01;99303.22;;;5.50;78.72
64336;BME280;50672;53.362;-6.240;2022-12-29T08:11:38;99294.97;;;5.43;78.58
64336;BME280;50672;53.362;-6.240;2022-12-29T08:14:06;99290.13;;;5.39;78.69
64336;BME280;50672;53.362;-6.240;2022-12-29T08:16:33;99282.34;;;5.36;78.71
64336;BME280;50672;53.362;-6.240;2022-12-29T08:19:00;99303.13;;;5.35;78.67
64336;BME280;50672;53.362;-6.240;2022-12-29T08:21:27;99300.59;;;5.34;78.61
64336;BME280;50672;53.362;-6.240;2022-12-29T08:23:55;99311.38;;;5.34;78.77
64336;BME280;50672;53.362;-6.240;2022-12-29T08:26:22;99325.06;;;5.32;78.65
64336;BME280;50672;53.362;-6.240;2022-12-29T08:28:52;99325.06;;;5.32;78.73
64336;BME280;50672;53.362;-6.240;2022-12-29T08:31:19;99327.75;;;5.32;78.61
64336;BME280;50672;53.362;-6.240;2022-12-29T08:33:46;99332.66;;;5.28;78.57
64336;BME280;50672;53.362;-6.240;2022-12-29T08:36:12;99320.03;;;5.29;78.38
64336;BME280;50672;53.362;-6.240;2022-12-29T08:38:39;99299.28;;;5.29;78.51
64336;BME280;50672;53.362;-6.240;2022-12-29T08:41:06;99352.41;;;5.29;78.54
64336;BME280;50672;53.362;-6.240;2022-12-29T08:43:32;99334.16;;;5.31;78.42
64336;BME280;50672;53.362;-6.240;2022-12-29T08:45:59;99339.56;;;5.31;78.47
64336;BME280;50672;53.362;-6.240;2022-12-29T08:48:26;99332.47;;;5.30;78.31
64336;BME280;50672;53.362;-6.240;2022-12-29T08:50:53;99335.72;;;5.25;78.36
64336;BME280;50672;53.362;-6.240;2022-12-29T08:53:20;99330.19;;;5.19;78.34
64336;BME280;50672;53.362;-6.240;2022-12-29T08:55:54;99337.25;;;5.20;78.41
64336;BME280;50672;53.362;-6.240;2022-12-29T08:58:29;99347.22;;;5.19;78.45
64336;BME280;50672;53.362;-6.240;2022-12-29T09:00:56;99349.41;;;5.16;78.39
64336;BME280;50672;53.362;-6.240;2022-12-29T09:03:24;99362.91;;;5.16;78.47
64336;BME280;50672;53.362;-6.240;2022-12-29T09:06:11;99364.59;;;5.17;78.29
64336;BME280;50672;53.362;-6.240;2022-12-29T09:08:38;99362.72;;;5.17;78.49
64336;BME280;50672;53.362;-6.240;2022-12-29T09:11:13;99375.84;;;5.20;78.27
64336;BME280;50672;53.362;-6.240;2022-12-29T09:13:41;99375.03;;;5.20;78.27
64336;BME280;50672;53.362;-6.240;2022-12-29T09:16:07;99379.59;;;5.19;78.16
64336;BME280;50672;53.362;-6.240;2022-12-29T09:18:34;99396.59;;;5.20;78.41
64336;BME280;50672;53.362;-6.240;2022-12-29T09:21:03;99407.41;;;5.20;78.20
64336;BME280;50672;53.362;-6.240;2022-12-29T09:23:31;99422.75;;;5.19;78.18
64336;BME280;50672;53.362;-6.240;2022-12-29T09:25:58;99419.38;;;5.17;78.18
64336;BME280;50672;53.362;-6.240;2022-12-29T09:28:25;99406.06;;;5.16;78.18
64336;BME280;50672;53.362;-6.240;2022-12-29T09:30:52;99440.13;;;5.17;78.26
64336;BME280;50672;53.362;-6.240;2022-12-29T09:33:19;99418.72;;;5.15;78.31
64336;BME280;50672;53.362;-6.240;2022-12-29T09:35:54;99425.94;;;5.14;78.43
64336;BME280;50672;53.362;-6.240;2022-12-29T09:38:22;99438.59;;;5.14;78.24
64336;BME280;50672;53.362;-6.240;2022-12-29T09:40:55;99425.28;;;5.12;78.47
64336;BME280;50672;53.362;-6.240;2022-12-29T09:44:05;99426.31;;;5.11;78.43
64336;BME280;50672;53.362;-6.240;2022-12-29T09:46:37;99436.25;;;5.11;78.33
64336;BME280;50672;53.362;-6.240;2022-12-29T09:51:53;99443.81;;;5.16;78.36
64336;BME280;50672;53.362;-6.240;2022-12-29T09:54:35;99435.91;;;5.14;78.56
64336;BME280;50672;53.362;-6.240;2022-12-29T09:57:03;99442.31;;;5.13;78.67
64336;BME280;50672;53.362;-6.240;2022-12-29T09:59:39;99458.13;;;5.16;78.52
64336;BME280;50672;53.362;-6.240;2022-12-29T10:02:28;99441.47;;;5.21;78.65
64336;BME280;50672;53.362;-6.240;2022-12-29T10:04:57;99463.19;;;5.27;78.52
64336;BME280;50672;53.362;-6.240;2022-12-29T10:07:40;99459.22;;;5.46;78.61
64336;BME280;50672;53.362;-6.240;2022-12-29T10:10:38;99471.16;;;5.60;78.53
64336;BME280;50672;53.362;-6.240;2022-12-29T10:13:16;99470.72;;;5.40;78.95
64336;BME280;50672;53.362;-6.240;2022-12-29T10:15:57;99459.00;;;5.17;79.06
64336;BME280;50672;53.362;-6.240;2022-12-29T10:24:34;99497.75;;;5.32;80.05
64336;BME280;50672;53.362;-6.240;2022-12-29T10:27:09;99477.28;;;5.46;80.12
64336;BME280;50672;53.362;-6.240;2022-12-29T10:29:37;99466.47;;;5.54;80.08
64336;BME280;50672;53.362;-6.240;2022-12-29T10:33:13;99471.97;;;5.61;80.29
64336;BME280;50672;53.362;-6.240;2022-12-29T10:35:43;99489.00;;;5.70;80.24
64336;BME280;50672;53.362;-6.240;2022-12-29T10:41:18;99495.50;;;6.00;80.29
64336;BME280;50672;53.362;-6.240;2022-12-29T10:44:15;99498.63;;;6.12;80.07
64336;BME280;50672;53.362;-6.240;2022-12-29T10:46:44;99489.28;;;6.23;80.21
64336;BME280;50672;53.362;-6.240;2022-12-29T10:49:16;99514.09;;;6.18;80.19
64336;BME280;50672;53.362;-6.240;2022-12-29T10:51:48;99513.31;;;6.09;80.23
64336;BME280;50672;53.362;-6.240;2022-12-29T10:54:23;99534.28;;;6.07;80.18
64336;BME280;50672;53.362;-6.240;2022-12-29T10:57:07;99538.19;;;6.05;80.03
64336;BME280;50672;53.362;-6.240;2022-12-29T10:59:36;99540.56;;;5.99;79.78
64336;BME280;50672;53.362;-6.240;2022-12-29T11:05:06;99540.19;;;5.94;79.93
64336;BME280;50672;53.362;-6.240;2022-12-29T11:07:37;99528.09;;;5.90;80.19
64336;BME280;50672;53.362;-6.240;2022-12-29T11:10:35;99522.97;;;5.95;80.08
64336;BME280;50672;53.362;-6.240;2022-12-29T11:15:48;99540.03;;;6.04;80.35
64336;BME280;50672;53.362;-6.240;2022-12-29T11:18:23;99543.22;;;6.08;80.19
64336;BME280;50672;53.362;-6.240;2022-12-29T11:20:59;99563.13;;;6.07;80.29
64336;BME280;50672;53.362;-6.240;2022-12-29T11:23:35;99560.97;;;5.94;80.25
64336;BME280;50672;53.362;-6.240;2022-12-29T11:26:35;99566.09;;;5.80;80.37
64336;BME280;50672;53.362;-6.240;2022-12-29T11:31:51;99571.81;;;5.77;80.36
64336;BME280;50672;53.362;-6.240;2022-12-29T11:36:52;99575.41;;;5.70;80.41
64336;BME280;50672;53.362;-6.240;2022-12-29T11:39:33;99564.97;;;5.67;80.58
64336;BME280;50672;53.362;-6.240;2022-12-29T11:42:01;99590.44;;;5.64;80.29
64336;BME280;50672;53.362;-6.240;2022-12-29T11:44:35;99588.06;;;5.61;80.44
64336;BME280;50672;53.362;-6.240;2022-12-29T11:47:05;99593.47;;;5.61;80.67
64336;BME280;50672;53.362;-6.240;2022-12-29T11:49:35;99599.72;;;5.61;80.38
64336;BME280;50672;53.362;-6.240;2022-12-29T11:52:02;99596.00;;;5.62;80.61
64336;BME280;50672;53.362;-6.240;2022-12-29T11:54:34;99605.78;;;5.63;80.41
64336;BME280;50672;53.362;-6.240;2022-12-29T11:57:12;99618.44;;;5.63;80.43
64336;BME280;50672;53.362;-6.240;2022-12-29T11:59:42;99613.88;;;5.63;80.58
64336;BME280;50672;53.362;-6.240;2022-12-29T12:03:16;99600.56;;;5.62;80.17
64336;BME280;50672;53.362;-6.240;2022-12-29T12:05:28;99618.44;;;5.63;80.26
64336;BME280;50672;53.362;-6.240;2022-12-29T12:08:12;99599.53;;;5.63;80.37
64336;BME280;50672;53.362;-6.240;2022-12-29T12:16:28;99612.50;;;5.76;79.92
64336;BME280;50672;53.362;-6.240;2022-12-29T12:19:31;99622.75;;;5.89;79.90
64336;BME280;50672;53.362;-6.240;2022-12-29T12:22:05;99621.75;;;5.90;79.95
64336;BME280;50672;53.362;-6.240;2022-12-29T12:24:52;99633.25;;;5.92;79.75
64336;BME280;50672;53.362;-6.240;2022-12-29T12:27:28;99640.28;;;6.09;79.67
64336;BME280;50672;53.362;-6.240;2022-12-29T12:30:17;99643.00;;;6.09;79.74
64336;BME280;50672;53.362;-6.240;2022-12-29T12:32:58;99638.97;;;6.05;79.89
64336;BME280;50672;53.362;-6.240;2022-12-29T12:46:38;99656.00;;;6.54;79.34
64336;BME280;50672;53.362;-6.240;2022-12-29T12:49:11;99646.75;;;6.71;79.42
64336;BME280;50672;53.362;-6.240;2022-12-29T13:00:15;99661.56;;;6.83;78.36
64336;BME280;50672;53.362;-6.240;2022-12-29T13:22:01;99706.88;;;6.90;77.34
64336;BME280;50672;53.362;-6.240;2022-12-29T13:37:57;99747.53;;;6.65;76.69
64336;BME280;50672;53.362;-6.240;2022-12-29T13:40:28;99747.53;;;6.65;76.70
64336;BME280;50672;53.362;-6.240;2022-12-29T13:43:01;99765.81;;;6.63;76.27
64336;BME280;50672;53.362;-6.240;2022-12-29T13:45:29;99756.69;;;6.56;76.11
64336;BME280;50672;53.362;-6.240;2022-12-29T13:48:05;99754.84;;;6.56;75.99
64336;BME280;50672;53.362;-6.240;2022-12-29T13:50:36;99758.56;;;6.55;75.81
64336;BME280;50672;53.362;-6.240;2022-12-29T13:55:56;99752.00;;;6.41;75.11
64336;BME280;50672;53.362;-6.240;2022-12-29T13:58:37;99767.72;;;6.38;75.07
64336;BME280;50672;53.362;-6.240;2022-12-29T14:01:20;99771.47;;;6.37;74.70
64336;BME280;50672;53.362;-6.240;2022-12-29T14:03:53;99786.34;;;6.32;74.53
64336;BME280;50672;53.362;-6.240;2022-12-29T14:06:28;99775.88;;;6.29;74.25
64336;BME280;50672;53.362;-6.240;2022-12-29T14:09:25;99787.50;;;6.30;74.06
64336;BME280;50672;53.362;-6.240;2022-12-29T14:12:00;99782.47;;;6.27;73.87
64336;BME280;50672;53.362;-6.240;2022-12-29T14:14:30;99789.88;;;6.25;73.98
64336;BME280;50672;53.362;-6.240;2022-12-29T14:17:11;99781.13;;;6.23;73.65
64336;BME280;50672;53.362;-6.240;2022-12-29T14:19:43;99789.22;;;6.23;73.43
64336;BME280;50672;53.362;-6.240;2022-12-29T14:22:11;99782.81;;;6.24;73.50
64336;BME280;50672;53.362;-6.240;2022-12-29T14:24:42;99801.88;;;6.22;73.21
64336;BME280;50672;53.362;-6.240;2022-12-29T14:34:51;99812.38;;;6.09;72.94
64336;BME280;50672;53.362;-6.240;2022-12-29T14:40:05;99796.81;;;6.03;72.98
64336;BME280;50672;53.362;-6.240;2022-12-29T14:42:33;99800.88;;;5.98;73.11
64336;BME280;50672;53.362;-6.240;2022-12-29T14:45:01;99795.59;;;5.97;73.07
64336;BME280;50672;53.362;-6.240;2022-12-29T14:50:39;99801.72;;;5.99;72.96
64336;BME280;50672;53.362;-6.240;2022-12-29T14:53:41;99810.19;;;6.04;73.31
64336;BME280;50672;53.362;-6.240;2022-12-29T14:56:10;99803.25;;;6.10;73.20
64336;BME280;50672;53.362;-6.240;2022-12-29T14:58:59;99808.13;;;6.14;73.05
64336;BME280;50672;53.362;-6.240;2022-12-29T15:01:43;99809.16;;;6.13;72.96
64336;BME280;50672;53.362;-6.240;2022-12-29T15:04:17;99820.13;;;6.12;73.03
64336;BME280;50672;53.362;-6.240;2022-12-29T15:06:46;99827.41;;;6.11;72.91
64336;BME280;50672;53.362;-6.240;2022-12-29T15:09:27;99824.00;;;6.09;73.08
64336;BME280;50672;53.362;-6.240;2022-12-29T15:12:01;99815.25;;;6.07;72.81
64336;BME280;50672;53.362;-6.240;2022-12-29T15:16:57;99823.19;;;6.09;72.89
64336;BME280;50672;53.362;-6.240;2022-12-29T15:19:26;99824.19;;;6.08;72.92
64336;BME280;50672;53.362;-6.240;2022-12-29T15:21:54;99818.94;;;6.06;72.98
64336;BME280;50672;53.362;-6.240;2022-12-29T15:24:23;99809.50;;;6.02;72.90
64336;BME280;50672;53.362;-6.240;2022-12-29T15:26:51;99829.75;;;5.98;73.00
64336;BME280;50672;53.362;-6.240;2022-12-29T15:29:39;99832.41;;;5.90;72.82
64336;BME280;50672;53.362;-6.240;2022-12-29T15:34:44;99838.16;;;5.78;73.21